^^
Meteo Knjazevac Station Historical Data
Daily Summary for August 15, 2021 Units:  English    Metric   Both
Daily Weekly Monthly Yearly Custom
  High: Low: Average:
Temperature: 93.9 °F 66.2 °F 75.9 °F
Dew Point: 75.5 °F 62.1 °F 67.3 °F
Humidity: 89% 54% 76%
Wind Speed: 7mph 0mph 2mph
Wind Gust: 16mph - -
Wind- - ESE
Pressure: 30.01 in 29.93 in -
Precipitation: 0.00 in    
Historical Graphs
 
 
Tabular Data for August 15, 2021
Time Temperature Dew Point Pressure Wind Wind Speed Wind Gust Humidity Rainfall Rate (Hourly) solar Conditions
00:00 74.5 °F 65.6 °F 29.97 in Calm   2 mph 74% 0.00 in 0 W/m2
00:10 74.1 °F 65.7 °F 29.97 in Calm   2 mph 75% 0.00 in 0 W/m2
00:20 73.8 °F 65.3 °F 29.98 in SSW 1 mph 2 mph 75% 0.00 in 0 W/m2
00:30 73.4 °F 65 °F 29.98 in Calm   2 mph 75% 0.00 in 0 W/m2
00:40 73 °F 64.6 °F 29.98 in Calm   4 mph 75% 0.00 in 0 W/m2
00:50 72.9 °F 65.2 °F 29.98 in West 2 mph 3 mph 77% 0.00 in 0 W/m2
01:00 72.5 °F 65.2 °F 29.98 in Calm   2 mph 78% 0.00 in 0 W/m2
01:10 72.3 °F 65.1 °F 29.98 in NW 1 mph 2 mph 78% 0.00 in 0 W/m2
01:20 72.1 °F 64.9 °F 29.99 in SW 1 mph 2 mph 78% 0.00 in 0 W/m2
01:30 72 °F 64.7 °F 29.99 in NE 1 mph 5 mph 78% 0.00 in 0 W/m2
01:40 71.8 °F 64.5 °F 29.99 in South 1 mph 2 mph 78% 0.00 in 0 W/m2
01:50 71.4 °F 64.6 °F 29.98 in WNW 1 mph 2 mph 79% 0.00 in 0 W/m2
02:00 71.2 °F 64.4 °F 29.99 in Calm   3 mph 79% 0.00 in 0 W/m2
02:10 71.2 °F 64.4 °F 29.99 in Calm   2 mph 79% 0.00 in 0 W/m2
02:20 71 °F 64.2 °F 29.99 in WSW 2 mph 3 mph 79% 0.00 in 0 W/m2
02:30 70.7 °F 63.9 °F 29.99 in Calm   2 mph 79% 0.00 in 0 W/m2
02:40 70.3 °F 63.9 °F 29.99 in Calm   2 mph 80% 0.00 in 0 W/m2
02:50 70.1 °F 63.7 °F 29.99 in Calm   2 mph 80% 0.00 in 0 W/m2
03:00 69.8 °F 63.7 °F 29.99 in Calm   2 mph 81% 0.00 in 0 W/m2
03:10 69.4 °F 63.4 °F 29.99 in SW 1 mph 3 mph 81% 0.00 in 0 W/m2
03:20 69.2 °F 63.1 °F 29.99 in Calm   3 mph 81% 0.00 in 0 W/m2
03:30 68.9 °F 63.5 °F 29.99 in West 1 mph 2 mph 83% 0.00 in 0 W/m2
03:40 68.7 °F 63.3 °F 29.99 in Calm   2 mph 83% 0.00 in 0 W/m2
03:50 68.2 °F 63.2 °F 29.99 in West 1 mph 3 mph 84% 0.00 in 0 W/m2
04:00 68 °F 63 °F 29.99 in Calm   2 mph 84% 0.00 in 0 W/m2
04:10 68 °F 63 °F 29.99 in Calm   2 mph 84% 0.00 in 0 W/m2
04:20 67.6 °F 62.6 °F 30.00 in Calm   1 mph 84% 0.00 in 0 W/m2
04:30 67.6 °F 63 °F 30.00 in Calm   2 mph 85% 0.00 in 0 W/m2
04:40 67.5 °F 62.8 °F 30.00 in Calm   3 mph 85% 0.00 in 0 W/m2
04:50 67.1 °F 62.8 °F 30.00 in NW 1 mph 2 mph 86% 0.00 in 0 W/m2
05:00 66.9 °F 62.6 °F 30.00 in NW 2 mph 2 mph 86% 0.00 in 0 W/m2
05:10 66.7 °F 62.4 °F 30.00 in West 3 mph 5 mph 86% 0.00 in 6 W/m2
05:20 66.7 °F 62.4 °F 30.00 in NW 1 mph 4 mph 86% 0.00 in 11 W/m2
05:30 66.7 °F 62.4 °F 30.00 in NW 1 mph 2 mph 86% 0.00 in 20 W/m2
05:40 66.4 °F 62.1 °F 30.00 in WNW 1 mph 2 mph 86% 0.00 in 30 W/m2
05:50 66.2 °F 62.5 °F 30.00 in West 1 mph 3 mph 88% 0.00 in 42 W/m2
06:00 66.2 °F 62.5 °F 30.00 in West 1 mph 3 mph 88% 0.00 in 54 W/m2
06:10 66.4 °F 62.7 °F 30.00 in West 1 mph 2 mph 88% 0.00 in 73 W/m2
06:20 66.4 °F 62.7 °F 30.00 in Calm   2 mph 88% 0.00 in 92 W/m2
06:30 66.4 °F 62.7 °F 30.01 in Calm   2 mph 88% 0.00 in 115 W/m2
06:40 66.7 °F 63.1 °F 30.00 in West 1 mph 2 mph 88% 0.00 in 138 W/m2
06:50 66.9 °F 63.6 °F 30.00 in WNW 1 mph 2 mph 89% 0.00 in 165 W/m2
07:00 67.3 °F 63.6 °F 30.00 in Calm   2 mph 88% 0.00 in 192 W/m2
07:10 67.7 °F 64 °F 30.01 in Calm   2 mph 88% 0.00 in 225 W/m2
07:20 68.2 °F 64.5 °F 30.01 in WSW 1 mph 2 mph 88% 0.00 in 256 W/m2
07:30 68.9 °F 65.2 °F 30.01 in WNW 1 mph 2 mph 88% 0.00 in 289 W/m2
07:40 69.4 °F 65.7 °F 30.01 in North 3 mph 6 mph 88% 0.00 in 319 W/m2
07:50 70.4 °F 66.3 °F 30.01 in NNE 3 mph 6 mph 87% 0.00 in 348 W/m2
08:00 71.1 °F 66.7 °F 30.01 in North 3 mph 7 mph 86% 0.00 in 383 W/m2
08:10 71.8 °F 67 °F 30.01 in NNE 3 mph 7 mph 85% 0.00 in 415 W/m2
08:20 72.5 °F 67.7 °F 30.01 in NNE 5 mph 8 mph 85% 0.00 in 448 W/m2
08:30 73.3 °F 68.1 °F 30.01 in NNE 3 mph 8 mph 84% 0.00 in 480 W/m2
08:40 74.1 °F 68.6 °F 30.01 in NNE 2 mph 8 mph 83% 0.00 in 515 W/m2
08:50 74.8 °F 68.6 °F 30.00 in NNE 1 mph 8 mph 81% 0.00 in 542 W/m2
09:00 75.8 °F 69.6 °F 30.00 in NNE 3 mph 6 mph 81% 0.00 in 574 W/m2
09:10 77.4 °F 70.4 °F 30.00 in North 3 mph 7 mph 79% 0.00 in 598 W/m2
09:20 78.7 °F 70.9 °F 30.00 in NNE 2 mph 10 mph 77% 0.00 in 630 W/m2
09:30 79.8 °F 70.7 °F 30.00 in NNE 5 mph 9 mph 74% 0.00 in 663 W/m2
09:40 80.8 °F 71.3 °F 29.99 in NNE 3 mph 8 mph 73% 0.00 in 691 W/m2
09:50 81.5 °F 70.8 °F 29.99 in NNE 3 mph 8 mph 70% 0.00 in 718 W/m2
10:00 82.2 °F 71 °F 29.99 in NNE 2 mph 7 mph 69% 0.00 in 746 W/m2
10:10 83.1 °F 71.5 °F 29.99 in NNE 3 mph 7 mph 68% 0.00 in 773 W/m2
10:20 83.7 °F 71.6 °F 29.99 in North 3 mph 6 mph 67% 0.00 in 798 W/m2
10:30 84.8 °F 72.2 °F 29.98 in North 3 mph 7 mph 66% 0.00 in 815 W/m2
10:40 85.6 °F 71.6 °F 29.98 in NNE 7 mph 12 mph 63% 0.00 in 830 W/m2
10:50 85.9 °F 72.3 °F 29.98 in NNE 5 mph 7 mph 64% 0.00 in 293 W/m2
11:00 86.5 °F 72.4 °F 29.97 in NNE 5 mph 12 mph 63% 0.00 in 814 W/m2
11:10 86.9 °F 72.3 °F 29.97 in North 5 mph 9 mph 62% 0.00 in 840 W/m2
11:20 88 °F 73.3 °F 29.97 in North 3 mph 8 mph 62% 0.00 in 713 W/m2
11:30 88.6 °F 73.9 °F 29.97 in North 2 mph 8 mph 62% 0.00 in 916 W/m2
11:40 88.9 °F 73.2 °F 29.97 in NNE 7 mph 12 mph 60% 0.00 in 931 W/m2
11:50 89.2 °F 73.5 °F 29.96 in NNE 6 mph 12 mph 60% 0.00 in 936 W/m2
12:00 89.2 °F 73 °F 29.96 in NNE 3 mph 9 mph 59% 0.00 in 945 W/m2
12:10 90 °F 74.2 °F 29.96 in North 3 mph 10 mph 60% 0.00 in 949 W/m2
12:20 90.5 °F 74.2 °F 29.95 in North 5 mph 10 mph 59% 0.00 in 956 W/m2
12:30 91.4 °F 74.5 °F 29.95 in North 3 mph 14 mph 58% 0.00 in 959 W/m2
12:40 91.6 °F 74.2 °F 29.95 in NNE 7 mph 11 mph 57% 0.00 in 768 W/m2
12:50 91.5 °F 74.6 °F 29.95 in NNE 3 mph 11 mph 58% 0.00 in 438 W/m2
13:00 92.4 °F 75.5 °F 29.95 in North 5 mph 12 mph 58% 0.00 in 586 W/m2
13:10 92.6 °F 74.6 °F 29.94 in North 3 mph 13 mph 56% 0.00 in 456 W/m2
13:20 92.8 °F 74.3 °F 29.94 in North 6 mph 12 mph 55% 0.00 in 946 W/m2
13:30 93.4 °F 74.8 °F 29.94 in North 3 mph 10 mph 55% 0.00 in 939 W/m2
13:40 93.6 °F 74.4 °F 29.94 in NNW 6 mph 12 mph 54% 0.00 in 923 W/m2
13:50 93.9 °F 74.7 °F 29.93 in North 2 mph 16 mph 54% 0.00 in 911 W/m2
Knjazevac, Serbia
Compliments of Weather Underground - 2 mb